Time;durP1;ratioP1;P1;durP2;ratioP2;P2;SDS_P1;SDS_P2;PMS_P1;PMS_P2;Temp;Humidity;BMP_temperature;BMP_pressure;BME280_temperature;BME280_humidity;BME280_pressure;Samples;Min_cycle;Max_cycle;Signal;HPM_P1;HPM_P2
2022/08/31 00:06:04;;;;;;;0.65;0.30;;;16.70;99.90;;;;;;5038995;28;20135;-85
2022/08/31 00:08:31;;;;;;;3.45;0.40;;;16.70;99.90;;;;;;5036065;28;20068;-84
2022/08/31 00:10:57;;;;;;;0.73;0.22;;;16.70;99.90;;;;;;5019751;28;20060;-84
2022/08/31 00:13:24;;;;;;;0.75;0.20;;;16.70;99.90;;;;;;5052989;28;20454;-84
2022/08/31 00:15:52;;;;;;;3.22;0.50;;;16.60;99.90;;;;;;5052491;28;20053;-84
2022/08/31 00:18:18;;;;;;;1.67;0.30;;;16.60;99.90;;;;;;5052609;28;20049;-84
2022/08/31 00:20:45;;;;;;;;;;;16.60;99.90;;;;;;5052779;28;20040;-84
2022/08/31 00:23:13;;;;;;;1.50;0.30;;;16.50;99.90;;;;;;5052626;28;19917;-85
2022/08/31 00:25:42;;;;;;;1.08;0.25;;;16.50;99.90;;;;;;5052564;28;20461;-84
2022/08/31 00:28:09;;;;;;;2.15;0.40;;;16.50;99.90;;;;;;5052265;28;20040;-84
2022/08/31 00:30:35;;;;;;;0.93;0.30;;;16.40;99.90;;;;;;5052301;28;20138;-84
2022/08/31 00:33:02;;;;;;;0.75;0.50;;;16.40;99.90;;;;;;5052778;28;20044;-84
2022/08/31 00:35:30;;;;;;;0.45;0.30;;;16.30;99.90;;;;;;5052222;28;20091;-84
2022/08/31 00:37:56;;;;;;;0.95;0.32;;;16.30;99.90;;;;;;5052242;28;20036;-84
2022/08/31 00:40:23;;;;;;;2.38;0.30;;;16.30;99.90;;;;;;5052238;28;20048;-84
2022/08/31 00:42:49;;;;;;;1.73;0.30;;;16.20;99.90;;;;;;5052068;28;20076;-84
2022/08/31 00:45:15;;;;;;;;;;;16.20;99.90;;;;;;5067807;28;20048;-84
2022/08/31 00:47:41;;;;;;;2.90;0.45;;;16.20;99.90;;;;;;5072150;28;19916;-84
2022/08/31 00:50:10;;;;;;;0.95;0.40;;;16.10;99.90;;;;;;5055597;28;20048;-85
2022/08/31 00:52:40;;;;;;;1.58;0.30;;;16.10;99.90;;;;;;5089221;28;20427;-83
2022/08/31 00:55:26;;;;;;;2.17;0.30;;;16.10;99.90;;;;;;5071807;28;20048;-84
2022/08/31 00:57:55;;;;;;;0.47;0.30;;;16.10;99.90;;;;;;5071161;28;20091;-84
2022/08/31 01:00:24;;;;;;;1.25;0.28;;;16.00;99.90;;;;;;5071767;28;20101;-84
2022/08/31 01:02:50;;;;;;;0.70;0.30;;;16.00;99.90;;;;;;5051885;28;20040;-84
2022/08/31 01:05:17;;;;;;;1.48;0.20;;;15.90;99.90;;;;;;5052000;28;20546;-84
2022/08/31 01:07:46;;;;;;;0.80;0.40;;;15.80;99.90;;;;;;5051442;28;20130;-84
2022/08/31 01:10:13;;;;;;;1.00;0.40;;;15.80;99.90;;;;;;5051990;28;20408;-84
2022/08/31 01:12:40;;;;;;;1.15;0.30;;;15.70;99.90;;;;;;5051557;28;20400;-84
2022/08/31 01:15:07;;;;;;;2.22;0.40;;;15.70;99.90;;;;;;5035426;28;20544;-84
2022/08/31 01:17:35;;;;;;;1.60;0.30;;;15.70;99.90;;;;;;5051170;28;20119;-84
2022/08/31 01:20:30;;;;;;;0.30;0.20;;;15.60;99.90;;;;;;5051666;28;20083;-84
2022/08/31 01:23:13;;;;;;;1.17;0.60;;;15.60;99.90;;;;;;5051723;28;20094;-84
2022/08/31 01:25:41;;;;;;;1.30;0.30;;;15.60;99.90;;;;;;5070433;28;20059;-84
2022/08/31 01:28:08;;;;;;;0.82;0.43;;;15.60;99.90;;;;;;5054822;28;20045;-84
2022/08/31 01:30:35;;;;;;;3.47;0.50;;;15.50;99.90;;;;;;5071293;28;20158;-84
2022/08/31 01:33:01;;;;;;;2.08;0.57;;;15.50;99.90;;;;;;5071193;28;20046;-84
2022/08/31 01:35:27;;;;;;;1.25;0.50;;;15.50;99.90;;;;;;5054680;28;20416;-84
2022/08/31 01:37:54;;;;;;;0.93;0.35;;;15.40;99.90;;;;;;5071002;28;20052;-84
2022/08/31 01:40:20;;;;;;;1.83;0.60;;;15.30;99.90;;;;;;5071371;28;20400;-84
2022/08/31 01:42:46;;;;;;;1.25;0.60;;;15.30;99.90;;;;;;5046893;28;20040;-84
2022/08/31 01:45:11;;;;;;;1.15;0.40;;;15.30;99.90;;;;;;5034775;28;20045;-84
2022/08/31 01:47:40;;;;;;;1.98;0.50;;;15.30;99.90;;;;;;5050996;28;20045;-83
2022/08/31 01:50:07;;;;;;;1.17;0.47;;;15.20;99.90;;;;;;5051033;28;20118;-84
2022/08/31 01:52:35;;;;;;;1.23;0.40;;;15.20;99.90;;;;;;5050738;28;20424;-84
2022/08/31 01:55:02;;;;;;;0.77;0.30;;;15.20;99.90;;;;;;5050808;28;20075;-84
2022/08/31 01:57:28;;;;;;;1.15;0.40;;;15.20;99.90;;;;;;5034421;28;20044;-84
2022/08/31 01:59:53;;;;;;;0.98;0.47;;;15.20;99.90;;;;;;5050411;28;20086;-84
2022/08/31 02:02:19;;;;;;;0.80;0.40;;;15.20;99.90;;;;;;5050853;28;20064;-84
2022/08/31 02:04:46;;;;;;;1.73;0.47;;;15.10;99.90;;;;;;5034094;28;20047;-84
2022/08/31 02:07:12;;;;;;;1.83;0.43;;;15.10;99.90;;;;;;5051543;28;20448;-84
2022/08/31 02:09:37;;;;;;;0.90;0.40;;;15.10;99.90;;;;;;5017560;28;20037;-84
2022/08/31 02:12:03;;;;;;;1.60;0.60;;;15.00;99.90;;;;;;5050754;28;20041;-84
2022/08/31 02:14:29;;;;;;;0.93;0.35;;;15.00;99.90;;;;;;5050665;28;20107;-84
2022/08/31 02:16:54;;;;;;;0.67;0.50;;;14.90;99.90;;;;;;5017335;28;20111;-84
2022/08/31 02:19:20;;;;;;;1.03;0.50;;;14.90;99.90;;;;;;5050121;28;20766;-84
2022/08/31 02:21:46;;;;;;;1.73;0.40;;;14.90;99.90;;;;;;5050744;28;20283;-84
2022/08/31 02:24:11;;;;;;;1.40;0.50;;;14.90;99.90;;;;;;5034633;28;20286;-84
2022/08/31 02:26:37;;;;;;;1.07;0.40;;;14.90;99.90;;;;;;5050733;28;20298;-84
2022/08/31 02:29:06;;;;;;;1.80;0.40;;;14.80;99.90;;;;;;5033962;28;20294;-84
2022/08/31 02:31:31;;;;;;;1.90;0.60;;;14.80;99.90;;;;;;5050470;28;20049;-84
2022/08/31 02:33:57;;;;;;;1.05;0.32;;;14.80;99.90;;;;;;5050024;28;20183;-83
2022/08/31 02:36:24;;;;;;;1.33;0.45;;;14.80;99.90;;;;;;5050559;28;20115;-84
2022/08/31 02:38:50;;;;;;;1.02;0.40;;;14.70;99.90;;;;;;5066901;28;20037;-84
2022/08/31 02:41:16;;;;;;;0.60;0.35;;;14.70;99.90;;;;;;5050552;28;20048;-84
2022/08/31 02:43:43;;;;;;;1.30;0.40;;;14.70;99.90;;;;;;5050397;28;20063;-84
2022/08/31 02:46:08;;;;;;;1.70;0.57;;;14.70;99.90;;;;;;5050762;28;20183;-84
2022/08/31 02:48:34;;;;;;;1.17;0.60;;;14.70;99.90;;;;;;5050207;28;20073;-83
2022/08/31 02:51:09;;;;;;;1.30;0.60;;;14.70;99.90;;;;;;5033581;28;20287;-84
2022/08/31 02:53:35;;;;;;;0.95;0.38;;;14.60;99.90;;;;;;5050311;28;20448;-84
2022/08/31 02:56:05;;;;;;;1.23;0.30;;;14.60;99.90;;;;;;5033667;28;20060;-84
2022/08/31 02:58:31;;;;;;;0.80;0.40;;;14.60;99.90;;;;;;5033934;28;20409;-84
2022/08/31 03:00:57;;;;;;;0.93;0.50;;;14.60;99.90;;;;;;5050021;28;20041;-84
2022/08/31 03:03:23;;;;;;;1.23;0.60;;;14.50;99.90;;;;;;5033556;28;20033;-84
2022/08/31 03:05:49;;;;;;;1.95;0.40;;;14.50;99.90;;;;;;5050032;28;20037;-83
2022/08/31 03:08:16;;;;;;;0.77;0.50;;;14.50;99.90;;;;;;5049920;28;20481;-84
2022/08/31 03:10:42;;;;;;;1.10;0.40;;;14.50;99.90;;;;;;5050122;28;20037;-84
2022/08/31 03:13:07;;;;;;;0.90;0.47;;;14.50;99.90;;;;;;5033897;28;20047;-84
2022/08/31 03:15:33;;;;;;;1.33;0.40;;;14.50;99.90;;;;;;5049759;28;20134;-84
2022/08/31 03:17:59;;;;;;;1.15;0.60;;;14.40;99.90;;;;;;5033631;28;20705;-84
2022/08/31 03:20:26;;;;;;;2.30;0.60;;;14.40;99.90;;;;;;5017062;28;20386;-84
2022/08/31 03:22:53;;;;;;;1.73;0.40;;;14.40;99.90;;;;;;5049898;28;20426;-84
2022/08/31 03:25:22;;;;;;;1.65;0.40;;;14.40;99.90;;;;;;5070185;28;20115;-84
2022/08/31 03:27:47;;;;;;;1.48;0.50;;;14.40;99.90;;;;;;5070214;28;20051;-83
2022/08/31 03:30:16;;;;;;;0.60;0.33;;;14.30;99.90;;;;;;5054968;28;20411;-84
2022/08/31 03:32:44;;;;;;;2.05;0.47;;;14.30;99.90;;;;;;5056815;28;20080;-83
2022/08/31 03:35:10;;;;;;;1.33;0.40;;;14.30;99.90;;;;;;5040624;28;20446;-84
2022/08/31 03:37:36;;;;;;;1.58;0.50;;;14.30;99.90;;;;;;5073519;28;20395;-83
2022/08/31 03:40:02;;;;;;;1.45;0.63;;;14.20;99.90;;;;;;5063389;28;20124;-84
2022/08/31 03:42:28;;;;;;;1.58;0.40;;;14.30;99.90;;;;;;5036766;28;20125;-84
2022/08/31 03:44:54;;;;;;;1.40;0.50;;;14.20;99.90;;;;;;5053414;28;20524;-84
2022/08/31 03:47:20;;;;;;;1.38;0.50;;;14.20;99.90;;;;;;5053422;28;20123;-84
2022/08/31 03:49:45;;;;;;;1.65;0.60;;;14.20;99.90;;;;;;5053113;28;20068;-84
2022/08/31 03:52:11;;;;;;;1.23;0.50;;;14.20;99.90;;;;;;5053596;28;20427;-84
2022/08/31 03:54:37;;;;;;;1.35;0.50;;;14.20;99.90;;;;;;5052633;28;20136;-84
2022/08/31 03:57:06;;;;;;;1.25;0.63;;;14.10;99.90;;;;;;5052942;28;20044;-84
2022/08/31 03:59:32;;;;;;;0.77;0.65;;;14.10;99.90;;;;;;5053132;28;20041;-84
2022/08/31 04:01:57;;;;;;;2.60;0.52;;;14.10;99.90;;;;;;5052837;28;20041;-84
2022/08/31 04:04:23;;;;;;;2.70;0.52;;;14.10;99.90;;;;;;5036338;28;20045;-84
2022/08/31 04:06:49;;;;;;;1.10;0.70;;;14.10;99.90;;;;;;5036295;28;20382;-83
2022/08/31 04:09:15;;;;;;;2.67;0.60;;;14.10;99.90;;;;;;5036578;28;20287;-84
2022/08/31 04:11:43;;;;;;;1.13;0.60;;;14.00;99.90;;;;;;5052634;28;20057;-84
2022/08/31 04:14:08;;;;;;;0.88;0.60;;;14.00;99.90;;;;;;5052654;28;20072;-84
2022/08/31 04:16:35;;;;;;;0.90;0.60;;;14.00;99.90;;;;;;5052970;28;20037;-84
2022/08/31 04:19:03;;;;;;;1.35;0.60;;;14.00;99.90;;;;;;5036241;28;20036;-84
2022/08/31 04:21:32;;;;;;;1.13;0.73;;;14.00;99.90;;;;;;5052658;28;20040;-83
2022/08/31 04:23:59;;;;;;;2.42;0.75;;;13.90;99.90;;;;;;5035803;28;20041;-84
2022/08/31 04:26:31;;;;;;;3.67;0.73;;;13.90;99.90;;;;;;5035843;28;20036;-84
2022/08/31 04:28:57;;;;;;;3.67;0.80;;;13.90;99.90;;;;;;5052227;28;20492;-83
2022/08/31 04:31:25;;;;;;;2.00;0.70;;;13.90;99.90;;;;;;5036049;28;20052;-84
2022/08/31 04:33:51;;;;;;;1.33;0.50;;;13.90;99.90;;;;;;5052517;28;20078;-83
2022/08/31 04:36:22;;;;;;;1.23;0.68;;;13.90;99.90;;;;;;5052622;28;20087;-84
2022/08/31 04:38:52;;;;;;;1.17;0.60;;;13.90;99.90;;;;;;5035484;28;20041;-84
2022/08/31 04:41:20;;;;;;;2.65;0.85;;;13.90;99.90;;;;;;5052177;28;20079;-84
2022/08/31 04:43:48;;;;;;;1.73;0.60;;;13.90;99.90;;;;;;5052274;28;20040;-83
2022/08/31 04:46:14;;;;;;;2.05;1.00;;;13.90;99.90;;;;;;5052206;28;20045;-84
2022/08/31 04:48:40;;;;;;;1.08;0.80;;;13.90;99.90;;;;;;5035433;28;20044;-83
2022/08/31 04:51:13;;;;;;;2.78;1.00;;;13.90;99.90;;;;;;5052203;28;20052;-84
2022/08/31 04:53:39;;;;;;;1.75;0.82;;;13.90;99.90;;;;;;5051837;28;20045;-83
2022/08/31 04:56:13;;;;;;;1.75;0.68;;;13.90;99.90;;;;;;5051842;28;20056;-83
2022/08/31 04:58:43;;;;;;;2.92;0.80;;;13.90;99.90;;;;;;5051527;28;20044;-83
2022/08/31 05:01:09;;;;;;;1.20;0.70;;;13.80;99.90;;;;;;5052222;28;20435;-84
2022/08/31 05:03:35;;;;;;;1.10;0.70;;;13.80;99.90;;;;;;5051396;28;20120;-84
2022/08/31 05:06:01;;;;;;;2.60;0.80;;;13.80;99.90;;;;;;5051633;28;20541;-84
2022/08/31 05:08:27;;;;;;;1.10;0.90;;;13.90;99.90;;;;;;5068483;28;20049;-84
2022/08/31 05:10:53;;;;;;;1.65;0.80;;;13.90;99.90;;;;;;5051570;28;20076;-84
2022/08/31 05:13:21;;;;;;;1.60;0.80;;;13.80;99.90;;;;;;5051739;28;20508;-84
2022/08/31 05:15:47;;;;;;;1.77;0.80;;;13.90;99.90;;;;;;5051207;28;20045;-84
2022/08/31 05:18:13;;;;;;;2.67;0.90;;;13.90;99.90;;;;;;5035101;28;20037;-83
2022/08/31 05:20:39;;;;;;;1.38;0.90;;;14.00;99.90;;;;;;5034746;28;20087;-83
2022/08/31 05:23:06;;;;;;;1.92;1.02;;;14.00;99.90;;;;;;5018445;28;20063;-84
2022/08/31 05:25:32;;;;;;;1.55;0.75;;;13.90;99.90;;;;;;5051298;28;20132;-84
2022/08/31 05:27:58;;;;;;;1.58;0.90;;;13.90;99.90;;;;;;5051618;28;20040;-84
2022/08/31 05:30:24;;;;;;;3.08;0.73;;;14.00;99.90;;;;;;5034894;28;20374;-84
2022/08/31 05:32:50;;;;;;;1.25;0.70;;;14.00;99.90;;;;;;5051160;28;20045;-84
2022/08/31 05:35:16;;;;;;;1.73;0.70;;;14.10;99.90;;;;;;5059393;28;20043;-84
2022/08/31 05:37:42;;;;;;;2.67;0.98;;;14.10;99.90;;;;;;5054288;28;20044;-84
2022/08/31 05:40:08;;;;;;;2.15;0.70;;;14.20;99.90;;;;;;5071116;28;20629;-84
2022/08/31 05:42:34;;;;;;;2.22;0.70;;;14.30;99.90;;;;;;5071197;28;20107;-84
2022/08/31 05:45:00;;;;;;;5.00;0.80;;;14.40;99.90;;;;;;5070950;28;20045;-84
2022/08/31 05:47:26;;;;;;;2.28;0.75;;;14.50;99.90;;;;;;5071399;28;20477;-84
2022/08/31 05:49:52;;;;;;;2.85;0.80;;;14.60;99.90;;;;;;5070845;28;20091;-84
2022/08/31 05:52:17;;;;;;;1.95;0.80;;;14.70;99.90;;;;;;5070411;28;20503;-84
2022/08/31 05:54:44;;;;;;;1.88;0.57;;;14.80;99.90;;;;;;5070160;28;20048;-84
2022/08/31 05:57:10;;;;;;;1.65;0.68;;;14.90;99.90;;;;;;5037850;28;20051;-85
2022/08/31 05:59:38;;;;;;;1.98;0.70;;;15.00;99.90;;;;;;5053994;28;20123;-84
2022/08/31 06:02:04;;;;;;;3.13;0.70;;;15.10;99.90;;;;;;5070933;28;20041;-84
2022/08/31 06:04:30;;;;;;;1.42;0.65;;;15.20;99.90;;;;;;5054287;28;20045;-85
2022/08/31 06:06:57;;;;;;;4.32;0.75;;;15.30;99.90;;;;;;5070724;28;20048;-84
2022/08/31 06:09:22;;;;;;;1.27;0.65;;;15.50;99.90;;;;;;5054193;28;20048;-84
2022/08/31 06:11:50;;;;;;;1.27;0.35;;;15.60;99.90;;;;;;5044334;28;20045;-84
2022/08/31 06:14:15;;;;;;;1.13;0.43;;;15.70;99.90;;;;;;5034210;28;20041;-84
2022/08/31 06:16:43;;;;;;;1.63;0.57;;;15.80;99.90;;;;;;5017580;28;20079;-84
2022/08/31 06:19:09;;;;;;;2.75;0.50;;;16.00;99.90;;;;;;5051009;28;20041;-84
2022/08/31 06:21:41;;;;;;;2.50;0.70;;;16.00;99.90;;;;;;5050809;28;20048;-84
2022/08/31 06:24:09;;;;;;;0.60;0.30;;;16.20;99.90;;;;;;5050885;28;20041;-84
2022/08/31 06:26:35;;;;;;;2.45;0.50;;;16.40;99.90;;;;;;5050665;28;20392;-84
2022/08/31 06:29:04;;;;;;;4.30;0.50;;;16.40;99.90;;;;;;5050466;28;20048;-84
2022/08/31 06:31:46;;;;;;;1.98;0.50;;;16.60;99.90;;;;;;5050649;28;20044;-84
2022/08/31 06:34:16;;;;;;;1.10;0.50;;;16.70;99.90;;;;;;5050811;28;20053;-84
2022/08/31 06:36:42;;;;;;;1.95;0.50;;;16.80;99.90;;;;;;5050309;28;20037;-84
2022/08/31 06:39:11;;;;;;;1.63;0.60;;;17.00;99.90;;;;;;5033848;28;20045;-84
2022/08/31 06:41:38;;;;;;;0.77;0.30;;;17.10;99.90;;;;;;5050538;28;20078;-84
2022/08/31 06:44:07;;;;;;;1.20;0.52;;;17.30;99.90;;;;;;5050678;28;20045;-84
2022/08/31 06:46:34;;;;;;;3.33;0.55;;;17.30;99.90;;;;;;5050258;28;20033;-84
2022/08/31 06:49:00;;;;;;;2.60;0.60;;;17.50;99.90;;;;;;5050487;28;20083;-84
2022/08/31 06:51:27;;;;;;;6.07;0.60;;;17.70;99.90;;;;;;5050619;28;20041;-84
2022/08/31 06:53:53;;;;;;;1.90;0.47;;;18.00;99.90;;;;;;5050014;28;20073;-84
2022/08/31 06:56:22;;;;;;;1.63;0.55;;;18.60;99.90;;;;;;5033666;28;20086;-85
2022/08/31 06:58:49;;;;;;;1.85;0.50;;;19.10;99.90;;;;;;5050146;28;20041;-85
2022/08/31 07:01:18;;;;;;;4.10;0.65;;;19.70;99.90;;;;;;5050157;28;20066;-84
2022/08/31 07:03:47;;;;;;;2.00;0.40;;;19.90;99.90;;;;;;5050689;28;20048;-85
2022/08/31 07:06:19;;;;;;;0.93;0.32;;;20.30;99.90;;;;;;5053919;28;20045;-85
2022/08/31 07:08:47;;;;;;;1.45;0.40;;;20.70;99.90;;;;;;5053577;28;20049;-85
2022/08/31 07:11:19;;;;;;;2.72;0.32;;;20.70;99.90;;;;;;5053524;28;20044;-85
2022/08/31 07:13:46;;;;;;;1.38;0.40;;;21.20;99.90;;;;;;5053329;28;20092;-85
2022/08/31 07:16:14;;;;;;;1.10;0.40;;;21.20;99.90;;;;;;5053437;28;20115;-85
2022/08/31 07:18:41;;;;;;;4.78;0.50;;;21.30;99.50;;;;;;5053259;28;20120;-85
2022/08/31 07:21:19;;;;;;;1.88;0.40;;;21.40;99.40;;;;;;5036707;28;20040;-85
2022/08/31 07:23:47;;;;;;;1.20;0.50;;;21.60;99.40;;;;;;5053602;28;20095;-85
2022/08/31 07:26:17;;;;;;;1.85;0.52;;;21.60;98.80;;;;;;5053674;28;20123;-85
2022/08/31 07:28:43;;;;;;;2.03;0.50;;;21.60;99.20;;;;;;5053363;28;20049;-85
2022/08/31 07:31:14;;;;;;;2.13;0.35;;;21.70;98.60;;;;;;5053883;28;20067;-85
2022/08/31 07:33:40;;;;;;;1.77;0.40;;;21.90;98.40;;;;;;5053648;28;20520;-85
2022/08/31 07:36:16;;;;;;;0.75;0.30;;;22.00;98.10;;;;;;5053605;28;20098;-85
2022/08/31 07:44:23;;;;;;;1.65;0.25;;;21.90;97.70;;;;;;5057956;28;20056;-85
2022/08/31 07:46:50;;;;;;;2.15;0.38;;;21.60;97.00;;;;;;5073117;28;20040;-85
2022/08/31 07:49:16;;;;;;;1.63;0.30;;;21.70;97.60;;;;;;5073480;28;20484;-85
2022/08/31 07:51:49;;;;;;;0.35;0.13;;;21.80;97.10;;;;;;5056416;28;20047;-85
2022/08/31 07:54:22;;;;;;;0.73;0.22;;;21.90;97.20;;;;;;5072992;28;20087;-85
2022/08/31 07:56:50;;;;;;;1.90;0.32;;;22.10;97.20;;;;;;5073327;28;20506;-85
2022/08/31 07:59:21;;;;;;;1.27;0.22;;;22.10;96.80;;;;;;5048412;28;20033;-85
2022/08/31 08:01:47;;;;;;;1.52;0.20;;;22.20;96.90;;;;;;5036869;28;20529;-85
2022/08/31 08:04:23;;;;;;;0.73;0.20;;;22.40;96.90;;;;;;5053299;28;20550;-85
2022/08/31 08:06:48;;;;;;;2.20;0.22;;;22.80;97.00;;;;;;5052936;28;20041;-85
2022/08/31 08:09:14;;;;;;;;;;;22.90;96.40;;;;;;5036758;28;20097;-85
2022/08/31 08:11:45;;;;;;;0.85;0.10;;;22.90;96.00;;;;;;5052757;28;20008;-86
2022/08/31 08:14:11;;;;;;;0.80;0.20;;;23.40;96.00;;;;;;5053014;28;20124;-85
2022/08/31 08:16:37;;;;;;;;;;;23.70;95.90;;;;;;5035805;28;20412;-85
2022/08/31 08:19:05;;;;;;;0.73;0.20;;;24.00;95.60;;;;;;5036299;28;19924;-85
2022/08/31 08:21:31;;;;;;;0.75;0.20;;;24.20;95.40;;;;;;5052940;28;20511;-86
2022/08/31 08:23:57;;;;;;;;;;;24.30;95.20;;;;;;5053195;28;20040;-86
2022/08/31 08:26:23;;;;;;;0.80;0.17;;;24.90;95.20;;;;;;5052675;28;20027;-86
2022/08/31 08:28:49;;;;;;;2.28;0.40;;;24.90;95.10;;;;;;5052611;28;20428;-86
2022/08/31 08:31:16;;;;;;;;;;;24.90;94.50;;;;;;5036478;28;20056;-86
2022/08/31 08:33:43;;;;;;;0.50;0.20;;;24.90;94.80;;;;;;5052205;28;20008;-86
2022/08/31 08:36:09;;;;;;;0.55;0.20;;;24.70;94.50;;;;;;5052298;28;20041;-86
2022/08/31 08:38:39;;;;;;;0.70;0.20;;;24.70;94.70;;;;;;5052312;28;20375;-86
2022/08/31 08:41:20;;;;;;;3.63;0.20;;;24.70;94.20;;;;;;5052633;28;20053;-86
2022/08/31 08:43:52;;;;;;;0.52;0.30;;;24.80;94.40;;;;;;5052405;28;20495;-86
2022/08/31 08:46:37;;;;;;;1.95;0.10;;;25.00;94.10;;;;;;5052195;28;20045;-86
2022/08/31 08:49:14;;;;;;;0.55;0.20;;;25.20;94.40;;;;;;5052249;28;20037;-86
2022/08/31 08:51:40;;;;;;;0.43;0.10;;;25.10;94.00;;;;;;5051828;28;20115;-86
2022/08/31 08:54:13;;;;;;;0.63;0.20;;;25.30;94.10;;;;;;5051783;28;20049;-86
2022/08/31 08:56:47;;;;;;;1.65;0.20;;;25.40;93.90;;;;;;5052000;28;20077;-87
2022/08/31 08:59:14;;;;;;;1.42;0.30;;;25.50;94.10;;;;;;5052433;28;20087;-86
2022/08/31 09:01:43;;;;;;;0.95;0.10;;;25.20;94.30;;;;;;5035234;28;20107;-86
2022/08/31 09:04:38;;;;;;;1.67;0.20;;;25.60;94.40;;;;;;5052258;28;20420;-86
2022/08/31 09:07:57;;;;;;;0.73;0.20;;;25.50;93.90;;;;;;5052101;28;20037;-86
2022/08/31 09:10:40;;;;;;;1.30;0.50;;;25.70;93.90;;;;;;5033775;28;20094;-86
2022/08/31 09:13:42;;;;;;;0.15;0.10;;;26.00;93.30;;;;;;5066709;28;20048;-86
2022/08/31 09:16:24;;;;;;;0.63;0.20;;;26.50;93.70;;;;;;5051655;28;20496;-86
2022/08/31 09:19:09;;;;;;;1.05;0.20;;;27.00;92.70;;;;;;5051737;28;20493;-87
2022/08/31 09:21:39;;;;;;;0.50;0.10;;;26.50;92.40;;;;;;5051834;28;20400;-86
2022/08/31 09:24:29;;;;;;;0.77;0.30;;;26.40;92.40;;;;;;5034983;28;20040;-86
2022/08/31 09:27:17;;;;;;;3.58;0.17;;;25.70;92.70;;;;;;5062886;28;20041;-87
2022/08/31 09:30:04;;;;;;;1.17;0.10;;;25.50;92.80;;;;;;5049731;28;20042;-87
2022/08/31 09:32:34;;;;;;;0.93;0.20;;;25.90;93.40;;;;;;5088246;28;20040;-86
2022/08/31 09:35:20;;;;;;;3.42;0.20;;;26.40;93.20;;;;;;5070996;28;20079;-87
2022/08/31 09:38:00;;;;;;;2.80;0.20;;;26.70;92.90;;;;;;5071285;28;20045;-87
2022/08/31 09:40:47;;;;;;;1.20;0.20;;;26.60;92.20;;;;;;5071286;28;20114;-87
2022/08/31 09:43:37;;;;;;;0.88;0.10;;;26.20;92.10;;;;;;5071673;28;20047;-87
2022/08/31 09:46:28;;;;;;;2.20;0.20;;;26.40;91.70;;;;;;5054464;28;20040;-87
2022/08/31 09:48:57;;;;;;;0.55;0.22;;;26.60;91.70;;;;;;5036042;28;20045;-87
2022/08/31 09:51:38;;;;;;;0.75;0.10;;;26.90;92.00;;;;;;5051293;28;20492;-87
2022/08/31 09:56:58;;;;;;;1.02;0.20;;;27.20;91.60;;;;;;5050975;28;20040;-87
2022/08/31 09:59:40;;;;;;;1.77;0.20;;;27.50;91.50;;;;;;5051382;28;20456;-87
2022/08/31 10:02:25;;;;;;;1.13;0.25;;;27.30;91.30;;;;;;5050872;28;20045;-86
2022/08/31 10:04:57;;;;;;;0.98;0.20;;;27.10;91.30;;;;;;5050354;28;20053;-87
2022/08/31 10:07:42;;;;;;;1.60;0.20;;;26.70;91.70;;;;;;5034622;28;20037;-87
2022/08/31 10:10:13;;;;;;;0.95;0.25;;;26.30;91.80;;;;;;5051132;28;20041;-87
2022/08/31 10:12:47;;;;;;;0.70;0.28;;;26.40;91.90;;;;;;5033839;28;20051;-86
2022/08/31 10:15:45;;;;;;;2.80;0.28;;;27.00;91.80;;;;;;5050649;28;20051;-87
2022/08/31 10:18:24;;;;;;;1.20;0.20;;;27.50;91.30;;;;;;5043887;28;20044;-87
2022/08/31 10:20:59;;;;;;;2.38;0.20;;;27.40;90.90;;;;;;5050494;28;20044;-87
2022/08/31 10:23:53;;;;;;;0.90;0.28;;;27.40;91.40;;;;;;5050725;28;20120;-87
2022/08/31 10:26:55;;;;;;;1.88;0.30;;;27.70;91.40;;;;;;5050853;28;20056;-87
2022/08/31 10:29:30;;;;;;;0.68;0.10;;;27.80;91.20;;;;;;5040407;28;20484;-87
2022/08/31 10:32:00;;;;;;;0.73;0.20;;;28.20;91.20;;;;;;5050667;28;20425;-87
2022/08/31 10:37:55;;;;;;;2.58;0.20;;;27.10;91.30;;;;;;5050719;28;20103;-87
2022/08/31 10:40:34;;;;;;;1.98;0.25;;;27.20;91.70;;;;;;5071202;28;20046;-87
2022/08/31 10:43:07;;;;;;;0.85;0.30;;;26.70;91.30;;;;;;5054097;28;20045;-87
2022/08/31 10:45:37;;;;;;;1.48;0.40;;;27.00;91.00;;;;;;5054819;28;20055;-87
2022/08/31 10:48:06;;;;;;;0.73;0.30;;;26.80;91.00;;;;;;5054778;28;20052;-86
2022/08/31 10:50:38;;;;;;;3.33;0.30;;;25.90;91.10;;;;;;5037861;28;20067;-87
2022/08/31 10:53:32;;;;;;;1.75;0.20;;;25.40;91.20;;;;;;5054760;28;20053;-86
2022/08/31 10:56:11;;;;;;;1.60;0.30;;;25.60;91.10;;;;;;5037152;28;20049;-86
2022/08/31 10:59:04;;;;;;;0.73;0.20;;;25.30;91.30;;;;;;5054333;28;20455;-86
2022/08/31 11:01:32;;;;;;;0.60;0.20;;;25.10;91.80;;;;;;5061526;28;20032;-87
2022/08/31 11:04:23;;;;;;;2.15;0.30;;;24.90;92.00;;;;;;5074055;28;20033;-86
2022/08/31 11:07:15;;;;;;;0.52;0.20;;;25.10;92.00;;;;;;5074287;28;20043;-86
2022/08/31 11:10:19;;;;;;;1.50;0.20;;;25.00;92.00;;;;;;5057125;28;20036;-86
2022/08/31 11:12:55;;;;;;;0.73;0.20;;;25.20;91.70;;;;;;5053144;28;20049;-86
2022/08/31 11:15:21;;;;;;;1.65;0.20;;;25.60;91.70;;;;;;5057545;28;20036;-86
2022/08/31 11:17:54;;;;;;;;;;;26.10;91.30;;;;;;5057365;28;20067;-86
2022/08/31 11:20:47;;;;;;;0.55;0.25;;;26.70;90.50;;;;;;5058296;28;19928;-86
2022/08/31 11:23:19;;;;;;;2.95;0.28;;;27.10;90.70;;;;;;5054063;28;20064;-87
2022/08/31 11:26:15;;;;;;;3.47;0.20;;;27.40;90.60;;;;;;5053700;28;20074;-86
2022/08/31 11:28:47;;;;;;;1.95;0.20;;;27.40;90.10;;;;;;5036903;28;20045;-86
2022/08/31 11:31:23;;;;;;;1.63;0.15;;;27.60;89.70;;;;;;5037176;28;20072;-87
2022/08/31 11:33:56;;;;;;;1.92;0.25;;;28.20;90.30;;;;;;5053829;28;20043;-87
2022/08/31 11:36:51;;;;;;;0.35;0.15;;;28.10;89.60;;;;;;5037311;28;20378;-87
2022/08/31 11:39:20;;;;;;;0.85;0.28;;;27.70;88.40;;;;;;5053878;28;20032;-87
2022/08/31 11:41:49;;;;;;;1.00;0.15;;;27.60;88.90;;;;;;5053527;28;20560;-87
2022/08/31 11:44:35;;;;;;;2.08;0.20;;;28.10;89.10;;;;;;5053442;28;20070;-88
2022/08/31 11:47:08;;;;;;;2.03;0.20;;;28.20;87.80;;;;;;5053198;28;20041;-87
2022/08/31 11:49:47;;;;;;;1.30;0.20;;;28.10;88.10;;;;;;5053001;28;20080;-88
2022/08/31 11:52:28;;;;;;;0.75;0.20;;;28.50;88.70;;;;;;5053044;28;20052;-88
2022/08/31 11:54:56;;;;;;;2.28;0.20;;;28.90;88.70;;;;;;5061703;28;20189;-88
2022/08/31 11:57:27;;;;;;;0.80;0.10;;;28.60;87.20;;;;;;5056789;28;20041;-88
2022/08/31 11:59:54;;;;;;;1.35;0.22;;;28.80;86.90;;;;;;5056499;28;20118;-88
2022/08/31 12:02:21;;;;;;;1.83;0.20;;;29.00;85.80;;;;;;5056398;28;20043;-88
2022/08/31 12:05:01;;;;;;;1.10;0.17;;;28.80;86.20;;;;;;5073439;28;20496;-88
2022/08/31 12:07:47;;;;;;;1.08;0.10;;;28.10;86.20;;;;;;5073328;28;20132;-88
2022/08/31 12:10:51;;;;;;;1.03;0.27;;;29.20;88.20;;;;;;5063853;28;20049;-88
2022/08/31 12:13:23;;;;;;;0.68;0.30;;;29.60;87.80;;;;;;5052517;28;20053;-88
2022/08/31 12:16:17;;;;;;;2.80;0.20;;;29.80;87.20;;;;;;5052756;28;20542;-88
2022/08/31 12:25:21;;;;;;;1.27;0.15;;;29.70;85.40;;;;;;5052687;28;20052;-88
2022/08/31 12:28:08;;;;;;;1.48;0.20;;;29.50;85.40;;;;;;5049340;28;20071;-88
2022/08/31 12:30:34;;;;;;;0.45;0.10;;;30.10;85.70;;;;;;5072670;28;20040;-88
2022/08/31 12:33:11;;;;;;;0.52;0.20;;;30.40;86.50;;;;;;5072253;28;20142;-88
2022/08/31 12:35:37;;;;;;;1.73;0.10;;;30.50;84.40;;;;;;5072432;28;20040;-88
2022/08/31 12:38:14;;;;;;;4.47;0.20;;;30.40;85.10;;;;;;5055785;28;20114;-89
2022/08/31 12:40:55;;;;;;;0.50;0.20;;;30.40;84.20;;;;;;5055555;28;20119;-88
2022/08/31 12:43:34;;;;;;;0.60;0.10;;;30.80;84.40;;;;;;5072510;28;20381;-88
2022/08/31 12:46:29;;;;;;;1.42;0.20;;;30.80;83.00;;;;;;5072112;28;20051;-88
2022/08/31 12:49:06;;;;;;;0.57;0.10;;;30.20;82.10;;;;;;5066920;28;20048;-88
2022/08/31 12:52:11;;;;;;;1.95;0.30;;;30.80;84.00;;;;;;5035739;28;20377;-88
2022/08/31 12:54:36;;;;;;;0.20;0.10;;;30.70;83.60;;;;;;5033330;28;20124;-88
2022/08/31 12:57:34;;;;;;;2.50;0.20;;;30.30;83.80;;;;;;5051840;28;20270;-88
2022/08/31 13:00:20;;;;;;;0.52;0.30;;;30.20;83.90;;;;;;5051953;28;20041;-88
2022/08/31 13:02:50;;;;;;;0.40;0.10;;;30.20;83.20;;;;;;5051162;28;20098;-88
2022/08/31 13:05:27;;;;;;;0.60;0.10;;;29.60;82.90;;;;;;5051741;28;20052;-88
2022/08/31 13:07:54;;;;;;;2.05;0.20;;;29.40;83.30;;;;;;5034983;28;20044;-88
2022/08/31 13:10:37;;;;;;;1.85;0.30;;;29.50;83.30;;;;;;5051827;28;20041;-88
2022/08/31 13:13:08;;;;;;;0.65;0.28;;;29.70;83.70;;;;;;5051699;28;20103;-88
2022/08/31 13:15:38;;;;;;;1.10;0.20;;;29.40;83.10;;;;;;5051645;28;20045;-88
2022/08/31 13:18:15;;;;;;;1.58;0.15;;;28.60;83.80;;;;;;5051575;28;20102;-88
2022/08/31 13:20:42;;;;;;;3.00;0.30;;;28.70;84.50;;;;;;5051994;28;20496;-88
2022/08/31 13:23:22;;;;;;;1.95;0.20;;;29.30;85.00;;;;;;5047943;28;20041;-88
2022/08/31 13:26:18;;;;;;;1.13;0.20;;;29.50;82.30;;;;;;5054911;28;20040;-88
2022/08/31 13:28:57;;;;;;;2.43;0.30;;;29.50;83.20;;;;;;5071227;28;20086;-88
2022/08/31 13:31:30;;;;;;;1.35;0.20;;;29.50;82.90;;;;;;5071724;28;20040;-88
2022/08/31 13:34:01;;;;;;;1.35;0.20;;;28.20;83.80;;;;;;5071480;28;20036;-88